Eastside, Mississippi
Current Conditions -  °F | °C
As of 10:53 PM on Saturday 22 Nov 2014 (Local Time) from KPQL Reporting Station
Overcast Overcast  
Wind Chill: 62°   Ceiling: 900
Heat Index: 62°   Visibility: 10mi
Dew Point: 59°   Wind: 10mph
Humidity: 90%   Direction: 80°E
Pressure: 29.95"   Gusts: NA
Location:  30.4156°N, 88.5348°W
Report Text: KPQL 230453Z AUTO 08009KT 10SM OVC009 17/15 A2995 RMK AO2 SLP143 T01670150 TSNO
Loading
Personal Weather Stations






























Interactive Weather Map New forecast layout! Learn more

10-Day Weather Forecast

Advertisements
Track Severe Weather on mobile